Informes de METARS cercanos

 

LEAL - Alicante/El Alte, Spain
Distance from station: SSE 60km
Actualización: 26/05/2024 20:00
Despejado
Despejado
 Viento del E
Viento: E 7 km/h
Temperatura: 22°C
Rocío: 17°C
Humedad: 73%
Barómetro: 1015 hPa
Resumen: Despejado
Visibility: greater than 10 km
2024/05/26 18:00 LEAL 261800Z 08004KT 050V120 CAVOK 22/17 Q1015 NOSIG
LEVC - Valencia (civ/Mi, Spain
Distance from station: NNE 84km
Actualización: 26/05/2024 20:00
Poco nuboso
Poco nuboso
 Viento del ENE
Viento: ENE 15 km/h
Temperatura: 23°C
Rocío: 16°C
Humedad: 65%
Barómetro: 1015 hPa
Clouds: Poco nuboso
Visibility: 10 km
Cloud details: Poco nuboso 610 m
2024/05/26 18:00 LEVC 261800Z 07008KT 9999 FEW020TCU 23/16 Q1015 NOSIG
 
LEAB - Albacete (civ/Mi, Spain
Distance from station: O 95km
Actualización: 26/05/2024 20:00
Nearby thunderstorm, Poco nuboso
Nearby thunderstorm, Poco nuboso
 Viento del S
Viento: S 20 km/h
Temperatura: 28°C
Heat Index: 27°C
Rocío: 13°C
Humedad: 40%
Barómetro: 1016 hPa
Resumen: Nearby Thunderstorm
Clouds: Poco nuboso
Visibility: 10 km
Cloud details: Poco nuboso 1829 m
2024/05/26 18:00 LEAB 261800Z 17011KT 130V210 9999 VCTS FEW060CB 28/13 Q1016 NOSIG
LERI - Alcantarilla(Sp-, Spain
Distance from station: SSO 100km
Actualización: 26/05/2024 20:00
Despejado
Despejado
 Viento del SO
Viento: SO 9 km/h
Temperatura: 27°C
Heat Index: 27°C
Rocío: 14°C
Humedad: 45%
Barómetro: 1014 hPa
Resumen: Despejado
Visibility: greater than 10 km
2024/05/26 18:00 LERI 261800Z 23005KT 190V260 CAVOK 27/14 Q1014 NOSIG
 
LELC - San Javier(Mil/C, Spain
Distance from station: S 113km
Actualización: 26/05/2024 20:00
Despejado
Despejado
 Viento del E
Viento: E 11 km/h
Temperatura: 22°C
Rocío: 19°C
Humedad: 83%
Barómetro: 1015 hPa
Resumen: Despejado
Visibility: greater than 10 km
2024/05/26 18:00 LELC 261800Z 09006KT 050V130 CAVOK 22/19 Q1015 NOSIG
LEIB - Ibiza/Es Codola, Spain
Distance from station: E 186km
Actualización: 26/05/2024 20:00
Poco nuboso
Poco nuboso
 Viento del E
Viento: E 11 km/h
Temperatura: 22°C
Rocío: 19°C
Humedad: 83%
Barómetro: 1015 hPa
Clouds: Poco nuboso
Visibility: 10 km
Cloud details: Poco nuboso 274 m
2024/05/26 18:00 LEIB 261800Z 09006KT 060V130 9999 FEW009 22/19 Q1015 NOSIG
 
LEAM - Almeria Airport, Spain
Distance from station: SSO 256km
Actualización: 26/05/2024 20:00
Despejado
Despejado
 Viento del S
Viento: S 9 km/h
Temperatura: 22°C
Rocío: 18°C
Humedad: 78%
Barómetro: 1014 hPa
Resumen: Despejado
Visibility: greater than 10 km
2024/05/26 18:00 LEAM 261800Z 18005KT 150V210 CAVOK 22/18 Q1014
LEMD - Madrid/Barajas, Spain
Distance from station: NO 305km
Actualización: 26/05/2024 20:00
Despejado
Despejado
 Viento del SSO
Viento: SSO 24 km/h
Temperatura: 29°C
Rocío: 7°C
Humedad: 25%
Barómetro: 1015 hPa
Resumen: Despejado
Visibility: greater than 10 km
2024/05/26 18:00 LEMD 261800Z 21013KT 180V240 CAVOK 29/07 Q1015 NOSIG
 
LEPA - Palma De Mallorc, Spain
Distance from station: ENE 313km
Actualización: 26/05/2024 20:00
Despejado
Despejado
 Viento del S
Viento: S 9 km/h
Temperatura: 25°C
Rocío: 18°C
Humedad: 65%
Barómetro: 1016 hPa
Resumen: Despejado
Visibility: greater than 10 km
2024/05/26 18:00 LEPA 261800Z 18005KT 130V230 CAVOK 25/18 Q1016 NOSIG